sensor_id;sensor_type;location;lat;lon;timestamp;pressure;altitude;pressure_sealevel;temperature;humidity
37860;BME280;23698;52.014;5.190;2023-01-26T00:02:28;102172.72;;;5.38;100.00
37860;BME280;23698;52.014;5.190;2023-01-26T00:05:15;102182.16;;;5.21;100.00
37860;BME280;23698;52.014;5.190;2023-01-26T00:08:02;102168.78;;;5.86;100.00
37860;BME280;23698;52.014;5.190;2023-01-26T00:10:49;102172.47;;;5.19;100.00
37860;BME280;23698;52.014;5.190;2023-01-26T00:13:36;102174.59;;;5.04;100.00
37860;BME280;23698;52.014;5.190;2023-01-26T00:16:25;102173.97;;;5.23;100.00
37860;BME280;23698;52.014;5.190;2023-01-26T00:19:12;102167.97;;;4.85;100.00
37860;BME280;23698;52.014;5.190;2023-01-26T00:21:58;102167.72;;;4.54;100.00
37860;BME280;23698;52.014;5.190;2023-01-26T00:24:45;102161.88;;;5.06;100.00
37860;BME280;23698;52.014;5.190;2023-01-26T00:27:32;102168.22;;;4.71;100.00
37860;BME280;23698;52.014;5.190;2023-01-26T00:30:19;102152.56;;;4.87;100.00
37860;BME280;23698;52.014;5.190;2023-01-26T00:33:07;102152.25;;;4.11;100.00
37860;BME280;23698;52.014;5.190;2023-01-26T00:35:53;102150.44;;;4.23;100.00
37860;BME280;23698;52.014;5.190;2023-01-26T00:38:40;102145.91;;;4.12;100.00
37860;BME280;23698;52.014;5.190;2023-01-26T00:41:27;102139.25;;;3.94;100.00
37860;BME280;23698;52.014;5.190;2023-01-26T00:44:33;102144.22;;;4.23;100.00
37860;BME280;23698;52.014;5.190;2023-01-26T00:47:19;102147.84;;;3.51;100.00
37860;BME280;23698;52.014;5.190;2023-01-26T00:50:09;102141.22;;;3.92;100.00
37860;BME280;23698;52.014;5.190;2023-01-26T00:52:57;102142.03;;;3.33;100.00
37860;BME280;23698;52.014;5.190;2023-01-26T00:55:44;102142.72;;;4.07;100.00
37860;BME280;23698;52.014;5.190;2023-01-26T00:58:30;102136.03;;;4.24;100.00
37860;BME280;23698;52.014;5.190;2023-01-26T01:01:17;102140.59;;;4.00;100.00
37860;BME280;23698;52.014;5.190;2023-01-26T01:04:03;102138.66;;;5.05;100.00
37860;BME280;23698;52.014;5.190;2023-01-26T01:06:52;102134.88;;;4.85;100.00
37860;BME280;23698;52.014;5.190;2023-01-26T01:09:38;102123.41;;;5.49;100.00
37860;BME280;23698;52.014;5.190;2023-01-26T01:12:25;102128.22;;;6.41;100.00
37860;BME280;23698;52.014;5.190;2023-01-26T01:15:15;102130.22;;;5.97;100.00
37860;BME280;23698;52.014;5.190;2023-01-26T01:18:03;102131.09;;;4.76;100.00
37860;BME280;23698;52.014;5.190;2023-01-26T01:20:49;102125.63;;;3.97;100.00
37860;BME280;23698;52.014;5.190;2023-01-26T01:23:38;102117.59;;;3.73;100.00
37860;BME280;23698;52.014;5.190;2023-01-26T01:26:25;102122.78;;;3.15;100.00
37860;BME280;23698;52.014;5.190;2023-01-26T01:29:12;102119.97;;;3.53;100.00
37860;BME280;23698;52.014;5.190;2023-01-26T01:31:59;102123.81;;;3.73;100.00
37860;BME280;23698;52.014;5.190;2023-01-26T01:34:46;102112.94;;;3.39;100.00
37860;BME280;23698;52.014;5.190;2023-01-26T01:37:33;102108.72;;;3.84;100.00
37860;BME280;23698;52.014;5.190;2023-01-26T01:40:22;102113.06;;;3.73;100.00
37860;BME280;23698;52.014;5.190;2023-01-26T01:43:10;102114.06;;;3.72;100.00
37860;BME280;23698;52.014;5.190;2023-01-26T01:45:58;102118.00;;;4.38;100.00
37860;BME280;23698;52.014;5.190;2023-01-26T01:48:50;102110.94;;;4.82;100.00
37860;BME280;23698;52.014;5.190;2023-01-26T01:51:41;102110.34;;;4.78;100.00
37860;BME280;23698;52.014;5.190;2023-01-26T01:54:33;102117.53;;;4.89;100.00
37860;BME280;23698;52.014;5.190;2023-01-26T01:57:24;102107.53;;;4.80;100.00
37860;BME280;23698;52.014;5.190;2023-01-26T02:00:15;102113.69;;;5.25;100.00
37860;BME280;23698;52.014;5.190;2023-01-26T02:03:07;102116.44;;;4.80;100.00
37860;BME280;23698;52.014;5.190;2023-01-26T02:06:01;102108.84;;;5.19;100.00
37860;BME280;23698;52.014;5.190;2023-01-26T02:08:51;102106.22;;;5.29;100.00
37860;BME280;23698;52.014;5.190;2023-01-26T02:11:40;102098.91;;;6.17;100.00
37860;BME280;23698;52.014;5.190;2023-01-26T02:14:31;102111.78;;;4.37;100.00
37860;BME280;23698;52.014;5.190;2023-01-26T02:17:18;102092.78;;;5.29;100.00
37860;BME280;23698;52.014;5.190;2023-01-26T02:20:10;102087.31;;;5.52;100.00
37860;BME280;23698;52.014;5.190;2023-01-26T02:23:05;102091.28;;;6.01;100.00
37860;BME280;23698;52.014;5.190;2023-01-26T02:26:08;102103.69;;;6.65;100.00
37860;BME280;23698;52.014;5.190;2023-01-26T02:28:56;102104.31;;;6.17;100.00
37860;BME280;23698;52.014;5.190;2023-01-26T02:31:43;102104.19;;;6.49;100.00
37860;BME280;23698;52.014;5.190;2023-01-26T02:34:31;102104.47;;;7.66;100.00
37860;BME280;23698;52.014;5.190;2023-01-26T02:37:17;102122.97;;;6.39;100.00
37860;BME280;23698;52.014;5.190;2023-01-26T02:40:08;102124.34;;;3.54;100.00
37860;BME280;23698;52.014;5.190;2023-01-26T02:43:00;102109.84;;;3.33;100.00
37860;BME280;23698;52.014;5.190;2023-01-26T02:45:47;102105.88;;;2.52;100.00
37860;BME280;23698;52.014;5.190;2023-01-26T02:48:33;102099.97;;;2.21;100.00
37860;BME280;23698;52.014;5.190;2023-01-26T02:51:37;102105.94;;;1.99;100.00
37860;BME280;23698;52.014;5.190;2023-01-26T02:54:25;102105.22;;;2.22;100.00
37860;BME280;23698;52.014;5.190;2023-01-26T02:57:29;102106.63;;;2.54;100.00
37860;BME280;23698;52.014;5.190;2023-01-26T03:00:21;102110.56;;;2.61;100.00
37860;BME280;23698;52.014;5.190;2023-01-26T03:03:12;102119.31;;;2.76;100.00
37860;BME280;23698;52.014;5.190;2023-01-26T03:05:59;102119.66;;;2.71;100.00
37860;BME280;23698;52.014;5.190;2023-01-26T03:08:48;102128.19;;;3.26;100.00
37860;BME280;23698;52.014;5.190;2023-01-26T03:11:34;102129.63;;;3.19;100.00
37860;BME280;23698;52.014;5.190;2023-01-26T03:14:27;102131.78;;;4.33;100.00
37860;BME280;23698;52.014;5.190;2023-01-26T03:17:14;102123.19;;;5.41;100.00
37860;BME280;23698;52.014;5.190;2023-01-26T03:20:01;102109.41;;;7.32;100.00
37860;BME280;23698;52.014;5.190;2023-01-26T03:23:11;102109.28;;;6.00;100.00
37860;BME280;23698;52.014;5.190;2023-01-26T03:26:15;102115.53;;;5.90;100.00
37860;BME280;23698;52.014;5.190;2023-01-26T03:29:20;102111.13;;;6.21;100.00
37860;BME280;23698;52.014;5.190;2023-01-26T03:32:08;102112.88;;;6.32;100.00
37860;BME280;23698;52.014;5.190;2023-01-26T03:34:58;102106.59;;;6.00;100.00
37860;BME280;23698;52.014;5.190;2023-01-26T03:37:45;102115.66;;;5.23;100.00
37860;BME280;23698;52.014;5.190;2023-01-26T03:40:59;102109.72;;;4.75;100.00
37860;BME280;23698;52.014;5.190;2023-01-26T03:44:04;102113.13;;;4.54;100.00
37860;BME280;23698;52.014;5.190;2023-01-26T03:47:09;102106.53;;;4.47;100.00
37860;BME280;23698;52.014;5.190;2023-01-26T03:50:15;102096.28;;;5.08;100.00
37860;BME280;23698;52.014;5.190;2023-01-26T03:53:21;102104.22;;;6.28;100.00
37860;BME280;23698;52.014;5.190;2023-01-26T03:56:28;102086.88;;;7.43;100.00
37860;BME280;23698;52.014;5.190;2023-01-26T03:59:21;102106.75;;;6.82;100.00
37860;BME280;23698;52.014;5.190;2023-01-26T04:02:24;102104.94;;;5.01;100.00
37860;BME280;23698;52.014;5.190;2023-01-26T04:05:30;102114.50;;;4.60;100.00
37860;BME280;23698;52.014;5.190;2023-01-26T04:08:35;102109.94;;;4.94;100.00
37860;BME280;23698;52.014;5.190;2023-01-26T04:11:22;102101.66;;;5.41;100.00
37860;BME280;23698;52.014;5.190;2023-01-26T04:14:10;102094.66;;;7.16;100.00
37860;BME280;23698;52.014;5.190;2023-01-26T04:17:18;102098.06;;;7.28;100.00
37860;BME280;23698;52.014;5.190;2023-01-26T04:20:22;102111.31;;;6.60;100.00
37860;BME280;23698;52.014;5.190;2023-01-26T04:23:28;102114.53;;;6.02;100.00
37860;BME280;23698;52.014;5.190;2023-01-26T04:26:14;102111.03;;;5.58;100.00
37860;BME280;23698;52.014;5.190;2023-01-26T04:29:01;102109.19;;;5.58;100.00
37860;BME280;23698;52.014;5.190;2023-01-26T04:31:48;102098.28;;;6.96;100.00
37860;BME280;23698;52.014;5.190;2023-01-26T04:34:37;102105.91;;;6.50;100.00
37860;BME280;23698;52.014;5.190;2023-01-26T04:37:32;102111.19;;;5.77;100.00
37860;BME280;23698;52.014;5.190;2023-01-26T04:40:20;102095.28;;;6.28;100.00
37860;BME280;23698;52.014;5.190;2023-01-26T04:43:07;102106.59;;;6.00;100.00
37860;BME280;23698;52.014;5.190;2023-01-26T04:45:58;102112.06;;;5.34;100.00
37860;BME280;23698;52.014;5.190;2023-01-26T04:48:46;102105.66;;;5.14;100.00
37860;BME280;23698;52.014;5.190;2023-01-26T04:51:33;102092.69;;;5.19;100.00
37860;BME280;23698;52.014;5.190;2023-01-26T04:54:20;102093.31;;;6.09;100.00
37860;BME280;23698;52.014;5.190;2023-01-26T04:57:08;102083.66;;;6.98;100.00
37860;BME280;23698;52.014;5.190;2023-01-26T04:59:58;102099.25;;;6.85;100.00
37860;BME280;23698;52.014;5.190;2023-01-26T05:02:46;102099.50;;;6.82;100.00
37860;BME280;23698;52.014;5.190;2023-01-26T05:05:34;102101.22;;;7.43;100.00
37860;BME280;23698;52.014;5.190;2023-01-26T05:08:21;102096.81;;;7.81;100.00
37860;BME280;23698;52.014;5.190;2023-01-26T05:11:08;102115.56;;;7.83;100.00
37860;BME280;23698;52.014;5.190;2023-01-26T05:14:20;102119.78;;;7.36;100.00
37860;BME280;23698;52.014;5.190;2023-01-26T05:17:21;102106.25;;;8.34;100.00
37860;BME280;23698;52.014;5.190;2023-01-26T05:20:34;102113.59;;;7.85;100.00
37860;BME280;23698;52.014;5.190;2023-01-26T05:23:32;102111.28;;;7.51;100.00
37860;BME280;23698;52.014;5.190;2023-01-26T05:26:32;102099.22;;;7.74;100.00
37860;BME280;23698;52.014;5.190;2023-01-26T05:29:23;102105.09;;;8.84;100.00
37860;BME280;23698;52.014;5.190;2023-01-26T05:32:10;102123.59;;;8.51;100.00
37860;BME280;23698;52.014;5.190;2023-01-26T05:34:57;102118.81;;;8.06;100.00
37860;BME280;23698;52.014;5.190;2023-01-26T05:37:43;102135.56;;;8.39;100.00
37860;BME280;23698;52.014;5.190;2023-01-26T05:40:31;102126.91;;;8.25;100.00
37860;BME280;23698;52.014;5.190;2023-01-26T05:43:18;102139.09;;;8.29;100.00
37860;BME280;23698;52.014;5.190;2023-01-26T05:46:25;102146.75;;;8.91;100.00
37860;BME280;23698;52.014;5.190;2023-01-26T05:49:12;102146.97;;;8.03;100.00
37860;BME280;23698;52.014;5.190;2023-01-26T05:51:59;102139.38;;;8.36;100.00
37860;BME280;23698;52.014;5.190;2023-01-26T05:54:47;102138.88;;;7.93;100.00
37860;BME280;23698;52.014;5.190;2023-01-26T05:57:34;102139.09;;;8.49;100.00
37860;BME280;23698;52.014;5.190;2023-01-26T06:00:24;102160.47;;;8.80;100.00
37860;BME280;23698;52.014;5.190;2023-01-26T06:03:20;102166.50;;;8.74;100.00
37860;BME280;23698;52.014;5.190;2023-01-26T06:06:07;102161.25;;;8.62;100.00
37860;BME280;23698;52.014;5.190;2023-01-26T06:09:06;102149.66;;;8.42;100.00
37860;BME280;23698;52.014;5.190;2023-01-26T06:12:14;102151.75;;;8.39;100.00
37860;BME280;23698;52.014;5.190;2023-01-26T06:15:13;102159.63;;;8.03;100.00
37860;BME280;23698;52.014;5.190;2023-01-26T06:18:02;102148.09;;;7.91;100.00
37860;BME280;23698;52.014;5.190;2023-01-26T06:20:51;102158.75;;;8.88;100.00
37860;BME280;23698;52.014;5.190;2023-01-26T06:23:38;102179.44;;;9.07;100.00
37860;BME280;23698;52.014;5.190;2023-01-26T06:26:25;102177.94;;;8.48;100.00
37860;BME280;23698;52.014;5.190;2023-01-26T06:29:14;102179.66;;;8.20;100.00
37860;BME280;23698;52.014;5.190;2023-01-26T06:32:00;102175.47;;;8.64;100.00
37860;BME280;23698;52.014;5.190;2023-01-26T06:34:47;102189.44;;;9.80;100.00
37860;BME280;23698;52.014;5.190;2023-01-26T06:37:36;102198.53;;;9.06;100.00
37860;BME280;23698;52.014;5.190;2023-01-26T06:40:22;102186.44;;;8.63;100.00
37860;BME280;23698;52.014;5.190;2023-01-26T06:43:09;102180.47;;;8.40;100.00
37860;BME280;23698;52.014;5.190;2023-01-26T06:45:56;102181.63;;;8.57;100.00
37860;BME280;23698;52.014;5.190;2023-01-26T06:48:43;102192.44;;;8.94;100.00
37860;BME280;23698;52.014;5.190;2023-01-26T06:51:41;102190.72;;;8.65;100.00
37860;BME280;23698;52.014;5.190;2023-01-26T06:54:31;102192.91;;;9.45;100.00
37860;BME280;23698;52.014;5.190;2023-01-26T06:57:18;102209.78;;;10.02;100.00
37860;BME280;23698;52.014;5.190;2023-01-26T07:00:21;102215.88;;;9.13;100.00
37860;BME280;23698;52.014;5.190;2023-01-26T07:03:15;102211.13;;;9.53;100.00
37860;BME280;23698;52.014;5.190;2023-01-26T07:06:02;102219.38;;;10.15;100.00
37860;BME280;23698;52.014;5.190;2023-01-26T07:08:50;102213.13;;;10.76;100.00
37860;BME280;23698;52.014;5.190;2023-01-26T07:11:38;102223.22;;;11.27;100.00
37860;BME280;23698;52.014;5.190;2023-01-26T07:14:25;102236.00;;;11.85;100.00
37860;BME280;23698;52.014;5.190;2023-01-26T07:17:12;102254.38;;;10.88;100.00
37860;BME280;23698;52.014;5.190;2023-01-26T07:19:59;102264.59;;;10.68;100.00
37860;BME280;23698;52.014;5.190;2023-01-26T07:22:45;102268.31;;;11.20;100.00
37860;BME280;23698;52.014;5.190;2023-01-26T07:25:32;102294.06;;;11.76;100.00
37860;BME280;23698;52.014;5.190;2023-01-26T07:28:21;102282.50;;;9.79;100.00
37860;BME280;23698;52.014;5.190;2023-01-26T07:31:09;102263.25;;;8.80;100.00
37860;BME280;23698;52.014;5.190;2023-01-26T07:33:56;102248.25;;;8.95;100.00
37860;BME280;23698;52.014;5.190;2023-01-26T07:36:43;102263.53;;;9.61;100.00
37860;BME280;23698;52.014;5.190;2023-01-26T07:39:30;102275.47;;;10.50;100.00
37860;BME280;23698;52.014;5.190;2023-01-26T07:42:16;102288.94;;;10.24;100.00
37860;BME280;23698;52.014;5.190;2023-01-26T07:45:18;102297.91;;;10.61;100.00
37860;BME280;23698;52.014;5.190;2023-01-26T07:48:05;102261.44;;;7.21;100.00
37860;BME280;23698;52.014;5.190;2023-01-26T07:50:52;102240.94;;;7.09;100.00
37860;BME280;23698;52.014;5.190;2023-01-26T07:53:39;102230.22;;;7.28;100.00
37860;BME280;23698;52.014;5.190;2023-01-26T07:56:28;102223.34;;;7.14;100.00
37860;BME280;23698;52.014;5.190;2023-01-26T07:59:15;102207.81;;;6.97;100.00
37860;BME280;23698;52.014;5.190;2023-01-26T08:02:03;102195.25;;;7.57;100.00
37860;BME280;23698;52.014;5.190;2023-01-26T08:04:49;102210.59;;;9.12;100.00
37860;BME280;23698;52.014;5.190;2023-01-26T08:07:36;102218.97;;;4.51;100.00
37860;BME280;23698;52.014;5.190;2023-01-26T08:10:23;102196.31;;;6.43;100.00
37860;BME280;23698;52.014;5.190;2023-01-26T08:13:10;102189.16;;;7.15;100.00
37860;BME280;23698;52.014;5.190;2023-01-26T08:15:59;102189.09;;;6.95;100.00
37860;BME280;23698;52.014;5.190;2023-01-26T08:18:48;102183.72;;;6.11;100.00
37860;BME280;23698;52.014;5.190;2023-01-26T08:21:35;102179.50;;;6.30;100.00
37860;BME280;23698;52.014;5.190;2023-01-26T08:24:22;102167.25;;;6.68;100.00
37860;BME280;23698;52.014;5.190;2023-01-26T08:27:10;102160.94;;;6.88;100.00
37860;BME280;23698;52.014;5.190;2023-01-26T08:29:57;102174.97;;;3.94;100.00
37860;BME280;23698;52.014;5.190;2023-01-26T08:32:44;102172.06;;;3.49;100.00
37860;BME280;23698;52.014;5.190;2023-01-26T08:35:32;102171.91;;;3.39;100.00
37860;BME280;23698;52.014;5.190;2023-01-26T08:38:19;102173.19;;;3.71;100.00
37860;BME280;23698;52.014;5.190;2023-01-26T08:41:06;102182.03;;;3.60;100.00
37860;BME280;23698;52.014;5.190;2023-01-26T08:43:52;102202.66;;;5.22;100.00
37860;BME280;23698;52.014;5.190;2023-01-26T08:46:39;102189.63;;;7.20;100.00
37860;BME280;23698;52.014;5.190;2023-01-26T08:49:25;102184.91;;;7.92;100.00
37860;BME280;23698;52.014;5.190;2023-01-26T08:52:14;102169.00;;;8.47;100.00
37860;BME280;23698;52.014;5.190;2023-01-26T08:55:01;102171.00;;;8.83;100.00
37860;BME280;23698;52.014;5.190;2023-01-26T08:57:51;102155.72;;;10.37;100.00
37860;BME280;23698;52.014;5.190;2023-01-26T09:00:39;102176.09;;;6.28;100.00
37860;BME280;23698;52.014;5.190;2023-01-26T09:03:26;102184.16;;;5.52;100.00
37860;BME280;23698;52.014;5.190;2023-01-26T09:06:13;102194.59;;;5.34;100.00
37860;BME280;23698;52.014;5.190;2023-01-26T09:09:01;102193.56;;;5.57;100.00
37860;BME280;23698;52.014;5.190;2023-01-26T09:11:48;102207.91;;;6.86;100.00
37860;BME280;23698;52.014;5.190;2023-01-26T09:14:35;102207.69;;;6.47;100.00
37860;BME280;23698;52.014;5.190;2023-01-26T09:17:22;102188.19;;;10.11;100.00
37860;BME280;23698;52.014;5.190;2023-01-26T09:20:09;102166.38;;;10.56;100.00
37860;BME280;23698;52.014;5.190;2023-01-26T09:22:57;102174.75;;;10.98;100.00
37860;BME280;23698;52.014;5.190;2023-01-26T09:25:45;102176.88;;;10.86;100.00
37860;BME280;23698;52.014;5.190;2023-01-26T09:28:37;102193.88;;;7.92;100.00
37860;BME280;23698;52.014;5.190;2023-01-26T09:31:24;102189.03;;;7.16;100.00
37860;BME280;23698;52.014;5.190;2023-01-26T09:34:10;102195.44;;;6.64;100.00
37860;BME280;23698;52.014;5.190;2023-01-26T09:36:57;102207.16;;;6.53;100.00
37860;BME280;23698;52.014;5.190;2023-01-26T09:39:44;102217.59;;;6.46;100.00
37860;BME280;23698;52.014;5.190;2023-01-26T09:42:44;102221.91;;;6.79;100.00
37860;BME280;23698;52.014;5.190;2023-01-26T09:45:42;102245.28;;;6.69;100.00
37860;BME280;23698;52.014;5.190;2023-01-26T09:48:38;102249.72;;;6.38;100.00
37860;BME280;23698;52.014;5.190;2023-01-26T09:51:32;102272.13;;;7.02;100.00
37860;BME280;23698;52.014;5.190;2023-01-26T09:54:24;102258.06;;;8.96;100.00
37860;BME280;23698;52.014;5.190;2023-01-26T09:57:14;102241.75;;;8.78;100.00
37860;BME280;23698;52.014;5.190;2023-01-26T10:00:06;102234.53;;;9.16;100.00
37860;BME280;23698;52.014;5.190;2023-01-26T10:03:04;102229.03;;;8.98;100.00
37860;BME280;23698;52.014;5.190;2023-01-26T10:06:00;102218.66;;;8.84;100.00
37860;BME280;23698;52.014;5.190;2023-01-26T10:09:21;102210.28;;;9.24;100.00
37860;BME280;23698;52.014;5.190;2023-01-26T10:12:15;102213.13;;;9.51;100.00
37860;BME280;23698;52.014;5.190;2023-01-26T10:15:20;102209.31;;;10.07;100.00
37860;BME280;23698;52.014;5.190;2023-01-26T10:18:16;102196.47;;;9.73;100.00
37860;BME280;23698;52.014;5.190;2023-01-26T10:21:04;102202.59;;;9.93;100.00
37860;BME280;23698;52.014;5.190;2023-01-26T10:23:53;102183.97;;;9.62;100.00
37860;BME280;23698;52.014;5.190;2023-01-26T10:26:40;102194.34;;;9.49;100.00
37860;BME280;23698;52.014;5.190;2023-01-26T10:29:27;102196.53;;;9.36;100.00
37860;BME280;23698;52.014;5.190;2023-01-26T10:32:16;102191.25;;;9.62;100.00
37860;BME280;23698;52.014;5.190;2023-01-26T10:35:04;102198.84;;;9.58;100.00
37860;BME280;23698;52.014;5.190;2023-01-26T10:37:51;102189.78;;;9.68;100.00
37860;BME280;23698;52.014;5.190;2023-01-26T10:40:42;102192.19;;;9.53;100.00
37860;BME280;23698;52.014;5.190;2023-01-26T10:43:37;102191.75;;;9.75;100.00
37860;BME280;23698;52.014;5.190;2023-01-26T10:46:31;102198.72;;;9.22;100.00
37860;BME280;23698;52.014;5.190;2023-01-26T10:49:20;102197.06;;;9.12;100.00
37860;BME280;23698;52.014;5.190;2023-01-26T10:52:15;102203.19;;;9.14;100.00
37860;BME280;23698;52.014;5.190;2023-01-26T10:55:09;102203.97;;;9.34;100.00
37860;BME280;23698;52.014;5.190;2023-01-26T10:57:56;102210.38;;;9.33;100.00
37860;BME280;23698;52.014;5.190;2023-01-26T11:00:43;102203.72;;;9.73;100.00
37860;BME280;23698;52.014;5.190;2023-01-26T11:03:40;102203.19;;;10.23;100.00
37860;BME280;23698;52.014;5.190;2023-01-26T11:06:29;102208.59;;;9.87;100.00
37860;BME280;23698;52.014;5.190;2023-01-26T11:09:18;102203.44;;;10.12;100.00
37860;BME280;23698;52.014;5.190;2023-01-26T11:12:05;102197.88;;;10.31;100.00
37860;BME280;23698;52.014;5.190;2023-01-26T11:15:00;102192.72;;;10.64;100.00
37860;BME280;23698;52.014;5.190;2023-01-26T11:17:51;102189.41;;;10.52;100.00
37860;BME280;23698;52.014;5.190;2023-01-26T11:20:48;102182.84;;;10.63;100.00
37860;BME280;23698;52.014;5.190;2023-01-26T11:23:45;102180.22;;;10.80;100.00
37860;BME280;23698;52.014;5.190;2023-01-26T11:27:03;102176.84;;;10.77;100.00
37860;BME280;23698;52.014;5.190;2023-01-26T11:30:18;102173.00;;;10.62;100.00
37860;BME280;23698;52.014;5.190;2023-01-26T11:33:16;102172.06;;;10.45;100.00
37860;BME280;23698;52.014;5.190;2023-01-26T11:36:10;102174.66;;;10.81;100.00
37860;BME280;23698;52.014;5.190;2023-01-26T11:39:09;102174.25;;;11.53;100.00
37860;BME280;23698;52.014;5.190;2023-01-26T11:42:12;102169.69;;;11.62;100.00
37860;BME280;23698;52.014;5.190;2023-01-26T11:45:18;102165.00;;;11.21;100.00
37860;BME280;23698;52.014;5.190;2023-01-26T11:48:16;102168.03;;;11.10;100.00
37860;BME280;23698;52.014;5.190;2023-01-26T11:51:14;102167.91;;;11.28;100.00
37860;BME280;23698;52.014;5.190;2023-01-26T11:54:31;102159.94;;;12.10;100.00
37860;BME280;23698;52.014;5.190;2023-01-26T11:57:25;102168.81;;;11.02;100.00
37860;BME280;23698;52.014;5.190;2023-01-26T12:00:16;102164.47;;;11.60;100.00
37860;BME280;23698;52.014;5.190;2023-01-26T12:03:19;102165.94;;;11.04;100.00
37860;BME280;23698;52.014;5.190;2023-01-26T12:06:15;102167.91;;;11.28;100.00
37860;BME280;23698;52.014;5.190;2023-01-26T12:09:04;102164.97;;;11.72;100.00
37860;BME280;23698;52.014;5.190;2023-01-26T12:11:59;102160.03;;;11.59;100.00
37860;BME280;23698;52.014;5.190;2023-01-26T12:14:54;102161.56;;;11.62;100.00
37860;BME280;23698;52.014;5.190;2023-01-26T12:17:49;102153.22;;;11.47;100.00
37860;BME280;23698;52.014;5.190;2023-01-26T12:20:41;102154.81;;;11.82;100.00
37860;BME280;23698;52.014;5.190;2023-01-26T12:23:35;102155.53;;;12.17;100.00
37860;BME280;23698;52.014;5.190;2023-01-26T12:26:24;102168.38;;;13.20;100.00
37860;BME280;23698;52.014;5.190;2023-01-26T12:29:18;102161.66;;;13.00;100.00
37860;BME280;23698;52.014;5.190;2023-01-26T12:32:09;102167.13;;;11.44;100.00
37860;BME280;23698;52.014;5.190;2023-01-26T12:34:57;102166.94;;;12.13;100.00
37860;BME280;23698;52.014;5.190;2023-01-26T12:37:46;102166.25;;;12.02;100.00
37860;BME280;23698;52.014;5.190;2023-01-26T12:40:42;102163.34;;;11.28;100.00
37860;BME280;23698;52.014;5.190;2023-01-26T12:43:43;102149.47;;;11.48;100.00
37860;BME280;23698;52.014;5.190;2023-01-26T12:46:39;102148.34;;;11.75;100.00
37860;BME280;23698;52.014;5.190;2023-01-26T12:49:31;102143.97;;;11.90;100.00
37860;BME280;23698;52.014;5.190;2023-01-26T12:52:25;102150.00;;;12.83;100.00
37860;BME280;23698;52.014;5.190;2023-01-26T12:55:17;102158.22;;;13.14;100.00
37860;BME280;23698;52.014;5.190;2023-01-26T12:58:07;102163.59;;;12.83;100.00
37860;BME280;23698;52.014;5.190;2023-01-26T13:01:00;102160.97;;;12.34;100.00
37860;BME280;23698;52.014;5.190;2023-01-26T13:03:53;102150.28;;;12.96;100.00
37860;BME280;23698;52.014;5.190;2023-01-26T13:06:41;102159.78;;;12.03;100.00
37860;BME280;23698;52.014;5.190;2023-01-26T13:09:27;102160.06;;;11.76;100.00
37860;BME280;23698;52.014;5.190;2023-01-26T13:12:42;102157.56;;;12.07;100.00
37860;BME280;23698;52.014;5.190;2023-01-26T13:15:30;102154.84;;;12.07;100.00
37860;BME280;23698;52.014;5.190;2023-01-26T13:18:17;102154.13;;;12.54;100.00
37860;BME280;23698;52.014;5.190;2023-01-26T13:21:07;102156.03;;;11.96;100.00
37860;BME280;23698;52.014;5.190;2023-01-26T13:23:54;102167.59;;;12.06;100.00
37860;BME280;23698;52.014;5.190;2023-01-26T13:26:42;102164.38;;;12.03;100.00
37860;BME280;23698;52.014;5.190;2023-01-26T13:29:32;102171.38;;;11.55;100.00
37860;BME280;23698;52.014;5.190;2023-01-26T13:32:55;102169.28;;;11.91;100.00
37860;BME280;23698;52.014;5.190;2023-01-26T13:35:48;102172.38;;;12.04;100.00
37860;BME280;23698;52.014;5.190;2023-01-26T13:38:39;102158.28;;;11.42;100.00
37860;BME280;23698;52.014;5.190;2023-01-26T13:41:28;102159.28;;;12.16;100.00
37860;BME280;23698;52.014;5.190;2023-01-26T13:44:18;102161.66;;;12.03;100.00
37860;BME280;23698;52.014;5.190;2023-01-26T13:47:10;102165.34;;;11.69;100.00
37860;BME280;23698;52.014;5.190;2023-01-26T13:49:59;102165.47;;;11.59;100.00
37860;BME280;23698;52.014;5.190;2023-01-26T13:52:45;102161.66;;;11.36;100.00
37860;BME280;23698;52.014;5.190;2023-01-26T13:55:33;102170.72;;;11.52;100.00
37860;BME280;23698;52.014;5.190;2023-01-26T13:58:26;102183.47;;;11.68;100.00
37860;BME280;23698;52.014;5.190;2023-01-26T14:01:14;102181.53;;;11.36;100.00
37860;BME280;23698;52.014;5.190;2023-01-26T14:04:02;102180.72;;;11.09;100.00
37860;BME280;23698;52.014;5.190;2023-01-26T14:06:52;102174.72;;;11.32;100.00
37860;BME280;23698;52.014;5.190;2023-01-26T14:09:44;102170.13;;;11.92;100.00
37860;BME280;23698;52.014;5.190;2023-01-26T14:12:35;102180.44;;;11.71;100.00
37860;BME280;23698;52.014;5.190;2023-01-26T14:15:28;102174.00;;;11.73;100.00
37860;BME280;23698;52.014;5.190;2023-01-26T14:18:19;102177.06;;;11.78;100.00
37860;BME280;23698;52.014;5.190;2023-01-26T14:21:16;102171.66;;;12.11;100.00
37860;BME280;23698;52.014;5.190;2023-01-26T14:24:07;102175.59;;;12.33;100.00
37860;BME280;23698;52.014;5.190;2023-01-26T14:26:54;102171.00;;;12.17;100.00
37860;BME280;23698;52.014;5.190;2023-01-26T14:29:42;102169.50;;;10.96;100.00
37860;BME280;23698;52.014;5.190;2023-01-26T14:32:29;102160.78;;;12.11;100.00
37860;BME280;23698;52.014;5.190;2023-01-26T14:35:19;102168.06;;;11.69;100.00
37860;BME280;23698;52.014;5.190;2023-01-26T14:38:13;102173.41;;;11.02;100.00
37860;BME280;23698;52.014;5.190;2023-01-26T14:41:00;102157.31;;;11.59;100.00
37860;BME280;23698;52.014;5.190;2023-01-26T14:43:48;102165.34;;;11.85;100.00
37860;BME280;23698;52.014;5.190;2023-01-26T14:46:53;102169.78;;;11.95;100.00
37860;BME280;23698;52.014;5.190;2023-01-26T14:49:44;102183.81;;;11.65;100.00
37860;BME280;23698;52.014;5.190;2023-01-26T14:52:35;102168.38;;;11.82;100.00
37860;BME280;23698;52.014;5.190;2023-01-26T14:55:26;102165.00;;;11.21;100.00